createdAt,value
2018-11-06T00:01:55.611Z,25.37
2018-11-06T00:04:29.248Z,27.10
2018-11-06T00:06:58.007Z,29.57
2018-11-06T00:09:26.714Z,33.83
2018-11-06T00:11:55.331Z,29.50
2018-11-06T00:14:23.984Z,31.93
2018-11-06T00:16:52.677Z,34.63
2018-11-06T00:19:21.319Z,35.83
2018-11-06T00:21:50.076Z,34.53
2018-11-06T00:24:18.863Z,35.30
2018-11-06T00:26:47.502Z,35.10
2018-11-06T00:29:16.108Z,35.03
2018-11-06T00:31:45.053Z,35.27
2018-11-06T00:34:14.071Z,35.00
2018-11-06T00:36:42.688Z,35.33
2018-11-06T00:39:11.621Z,34.83
2018-11-06T00:41:40.244Z,33.90
2018-11-06T00:44:09.122Z,36.93
2018-11-06T00:46:37.777Z,33.70
2018-11-06T00:49:06.567Z,35.20
2018-11-06T00:51:35.194Z,35.00
2018-11-06T00:54:03.857Z,34.63
2018-11-06T00:56:32.524Z,36.50
2018-11-06T00:59:01.148Z,34.20
2018-11-06T01:01:29.797Z,35.53
2018-11-06T01:04:03.797Z,35.20
2018-11-06T01:06:32.524Z,35.27
2018-11-06T01:09:01.183Z,35.03
2018-11-06T01:11:29.809Z,36.33
2018-11-06T01:13:58.468Z,37.30
2018-11-06T01:16:27.189Z,35.77
2018-11-06T01:18:55.836Z,33.63
2018-11-06T01:21:24.485Z,35.80
2018-11-06T01:23:53.171Z,35.03
2018-11-06T01:26:21.921Z,33.73
2018-11-06T01:28:50.524Z,35.87
2018-11-06T01:31:19.216Z,35.77
2018-11-06T01:33:48.849Z,33.73
2018-11-06T01:36:17.493Z,35.43
2018-11-06T01:38:46.128Z,33.37
2018-11-06T01:41:14.784Z,32.43
2018-11-06T01:43:43.475Z,33.30
2018-11-06T01:46:12.121Z,34.07
2018-11-06T01:48:40.826Z,34.03
2018-11-06T01:51:09.472Z,33.63
2018-11-06T01:53:38.119Z,34.13
2018-11-06T01:56:06.752Z,33.00
2018-11-06T01:58:35.869Z,33.97
2018-11-06T02:01:04.640Z,34.73
2018-11-06T02:03:33.236Z,33.73
2018-11-06T02:06:01.900Z,32.97
2018-11-06T02:08:30.524Z,33.93
2018-11-06T02:10:59.229Z,32.93
2018-11-06T02:13:28.234Z,32.23
2018-11-06T02:15:57.084Z,30.37
2018-11-06T02:18:25.764Z,30.67
2018-11-06T02:20:54.383Z,30.60
2018-11-06T02:27:59.588Z,35.17
2018-11-06T02:30:28.291Z,30.00
2018-11-06T02:32:56.955Z,29.20
2018-11-06T02:35:25.560Z,29.70
2018-11-06T02:37:54.239Z,28.07
2018-11-06T02:40:22.921Z,27.23
2018-11-06T02:42:51.632Z,27.93
2018-11-06T02:45:20.265Z,28.77
2018-11-06T02:47:48.888Z,30.70
2018-11-06T02:50:17.558Z,30.37
2018-11-06T02:52:46.236Z,29.63
2018-11-06T02:55:14.918Z,26.80
2018-11-06T02:57:43.685Z,26.53
2018-11-06T03:00:16.533Z,26.50
2018-11-06T03:02:46.282Z,25.60
2018-11-06T03:05:14.955Z,25.63
2018-11-06T03:07:43.708Z,25.40
2018-11-06T03:10:13.421Z,25.27
2018-11-06T03:12:42.934Z,24.30
2018-11-06T03:15:12.817Z,23.17
2018-11-06T03:17:41.510Z,23.33
2018-11-06T03:20:11.093Z,24.23
2018-11-06T03:22:40.326Z,22.33
2018-11-06T03:25:09.089Z,23.30
2018-11-06T03:27:37.764Z,24.03
2018-11-06T03:30:12.477Z,22.40
2018-11-06T03:32:41.187Z,22.80
2018-11-06T03:35:11.243Z,22.40
2018-11-06T03:37:40.139Z,21.77
2018-11-06T03:40:09.837Z,21.40
2018-11-06T03:42:38.915Z,22.77
2018-11-06T03:45:08.130Z,22.77
2018-11-06T03:47:37.045Z,23.57
2018-11-06T03:50:05.943Z,24.13
2018-11-06T03:52:34.615Z,26.03
2018-11-06T03:55:03.308Z,25.63
2018-11-06T03:57:31.992Z,27.57
2018-11-06T04:00:00.653Z,26.80
2018-11-06T04:02:29.302Z,25.80
2018-11-06T04:04:57.980Z,25.53
2018-11-06T04:07:26.671Z,26.80
2018-11-06T04:09:55.374Z,26.77
2018-11-06T04:12:24.069Z,25.73
2018-11-06T04:14:52.801Z,27.13
2018-11-06T04:17:21.457Z,26.30
2018-11-06T04:19:50.276Z,27.63
2018-11-06T04:22:18.924Z,27.80
2018-11-06T04:24:47.626Z,26.23
2018-11-06T04:27:16.253Z,25.60
2018-11-06T04:29:44.917Z,25.23
2018-11-06T04:32:13.532Z,24.70
2018-11-06T04:34:42.127Z,24.53
2018-11-06T04:37:10.826Z,25.63
2018-11-06T04:39:39.467Z,24.07
2018-11-06T04:42:08.179Z,25.00
2018-11-06T04:44:36.849Z,26.20
2018-11-06T04:47:05.924Z,25.47
2018-11-06T04:49:35.019Z,25.43
2018-11-06T04:52:03.744Z,26.50
2018-11-06T04:54:32.424Z,25.17
2018-11-06T04:57:01.083Z,25.50
2018-11-06T04:59:29.796Z,26.70
2018-11-06T05:01:58.571Z,26.03
2018-11-06T05:04:27.192Z,25.37
2018-11-06T05:06:55.894Z,25.63
2018-11-06T05:09:24.605Z,26.20
2018-11-06T05:11:53.264Z,25.93
2018-11-06T05:14:22.017Z,25.83
2018-11-06T05:16:50.689Z,25.97
2018-11-06T05:19:19.353Z,27.73
2018-11-06T05:21:48.098Z,26.37
2018-11-06T05:24:16.783Z,27.47
2018-11-06T05:26:45.393Z,26.97
2018-11-06T05:29:14.053Z,27.10
2018-11-06T05:31:42.708Z,25.27
2018-11-06T05:34:11.394Z,26.70
2018-11-06T05:36:40.014Z,25.60
2018-11-06T05:39:10.626Z,26.37
2018-11-06T05:41:39.213Z,25.40
2018-11-06T05:44:07.865Z,25.53
2018-11-06T05:46:36.765Z,25.33
2018-11-06T05:49:05.464Z,26.97
2018-11-06T05:51:34.171Z,25.33
2018-11-06T05:54:02.879Z,26.17
2018-11-06T05:56:31.553Z,26.10
2018-11-06T05:59:00.217Z,27.40
2018-11-06T06:01:29.203Z,27.50
2018-11-06T06:03:57.924Z,28.63
2018-11-06T06:06:27.181Z,31.20
2018-11-06T06:08:55.888Z,36.73
2018-11-06T06:11:24.540Z,26.80
2018-11-06T06:13:53.167Z,27.87
2018-11-06T06:16:21.841Z,34.70
2018-11-06T06:18:50.525Z,28.63
2018-11-06T06:21:19.260Z,32.73
2018-11-06T06:23:48.010Z,28.47
2018-11-06T06:26:16.888Z,28.43
2018-11-06T06:28:45.558Z,27.87
2018-11-06T06:31:14.234Z,27.13
2018-11-06T06:33:42.938Z,28.30
2018-11-06T06:36:11.706Z,28.70
2018-11-06T06:38:40.540Z,26.23
2018-11-06T06:41:09.304Z,26.37
2018-11-06T06:43:37.926Z,26.03
2018-11-06T06:46:06.588Z,25.87
2018-11-06T06:48:35.288Z,26.47
2018-11-06T06:51:03.977Z,25.70
2018-11-06T06:53:32.632Z,22.67
2018-11-06T06:56:01.293Z,23.87
2018-11-06T06:58:29.920Z,22.03
2018-11-06T07:00:58.700Z,22.10
2018-11-06T07:03:27.376Z,20.73
2018-11-06T07:05:56.022Z,19.23
2018-11-06T07:08:24.968Z,20.70
2018-11-06T07:10:53.652Z,22.57
2018-11-06T07:13:22.353Z,19.33
2018-11-06T07:15:50.972Z,29.83
2018-11-06T07:18:19.626Z,22.83
2018-11-06T07:20:48.277Z,23.63
2018-11-06T07:23:16.955Z,22.87
